Fitchburg, MA

1:26 PM EST on January 20, 2017 (GMT -0500)
Fitchburg Municipal | | Change Station

Elev 348 ft 42.55 °N, 71.76 °W | Updated 34 minutes ago

Overcast
Overcast
39 °F
Feels Like 34 °F
N
7
Wind Variable Wind from South

Today
High -- | Low -- °F
--% Chance of Precip.
Yesterday
High -- | Low -- °F
Precip. -- in
Pressure 29.98 in
Visibility 10.0 miles
Clouds Overcast 2600 ft
Windchill 34 °F
Dew Point 29 °F
Humidity 67%
Rainfall 0.00 in
Snow Depth Not available.
7:11 AM 4:45 PM
Last Quarter, 42% visible
METAR KFIT 201752Z AUTO 17006KT 10SM OVC026 04/M02 A2997 RMK AO2 SLP151 T00391017 10039 21011 58022
Pressure 29.98 in
Visibility 10.0 miles
Clouds Overcast 2600 ft
Windchill 34 °F
Dew Point 29 °F
Humidity 67%
Rainfall 0.00 in
Snow Depth Not available.
7:11 AM 4:45 PM
Last Quarter, 42% visible
METAR KFIT 201752Z AUTO 17006KT 10SM OVC026 04/M02 A2997 RMK AO2 SLP151 T00391017 10039 21011 58022

Get Your Daily Forecast Email!

Thanks for signing up!

Be on the lookout for a verification email in your inbox.

You'll start receiving the daily forecast at 8 AM.

×

10-Day Weather Forecast

Almanac

Astronomy

Jan. 20, 2017 Rise Set
Actual Time
Civil Twilight
Nautical Twilight
Astronomical Twilight
Moon
Length of Visible Light
Length of Day
Tomorrow will be .
, % of the Moon is Illuminated

Today's Extremes

State Highs State Lows

Community

WunderPhotos

Upload Photos

1,962,540 photos uploaded!

WunderBlog® & News

Nearby

Air Quality

  Air Quality AQ Index Pollutant
Not available.

Snow Depth

Station Depth Elevation

Earthquake Activity

City Distance Mag. Time & Date
Minimum magnitude displayed is 2.5.

Coastal Water Temperatures

Place Temperature

Stations

Nearby Weather Stations

Station Location Temp. Windchill Dew Point Humidity Wind Precip. Elev Updated Type
                   

Watches & Warnings

There are currently no watches in effect.